Time;durP1;ratioP1;P1;durP2;ratioP2;P2;SDS_P1;SDS_P2;PMS_P1;PMS_P2;Temp;Humidity;BMP_temperature;BMP_pressure;BME280_temperature;BME280_humidity;BME280_pressure;Samples;Min_cycle;Max_cycle;Signal;HPM_P1;HPM_P2
2022/05/22 00:02:10;;;;;;;2.10;1.20;;;;;;;25.89;45.87;99077.09;5072023;28;20041;-73
2022/05/22 00:04:37;;;;;;;2.17;1.30;;;;;;;25.88;46.12;99071.91;5072010;28;20052;-73
2022/05/22 00:07:05;;;;;;;2.42;1.52;;;;;;;25.90;46.20;99072.28;5071704;28;20056;-73
2022/05/22 00:09:31;;;;;;;2.03;1.30;;;;;;;25.90;46.10;99066.69;5053780;28;20049;-73
2022/05/22 00:11:57;;;;;;;1.90;1.30;;;;;;;25.89;46.27;99062.28;5071630;28;20446;-73
2022/05/22 00:14:25;;;;;;;2.45;1.52;;;;;;;25.89;46.21;99060.28;5071616;28;20048;-73
2022/05/22 00:16:51;;;;;;;1.98;1.30;;;;;;;25.89;46.37;99062.28;5071676;28;20044;-70
2022/05/22 00:19:26;;;;;;;1.92;1.35;;;;;;;25.88;46.47;99043.91;5071816;28;20055;-70
2022/05/22 00:21:52;;;;;;;1.63;1.20;;;;;;;25.88;46.26;99050.28;5071831;28;20037;-70
2022/05/22 00:24:20;;;;;;;2.55;1.40;;;;;;;25.87;46.45;99050.72;5071711;28;20067;-70
2022/05/22 00:26:46;;;;;;;1.80;1.20;;;;;;;25.86;46.74;99049.94;5071554;28;20397;-70
2022/05/22 00:29:13;;;;;;;2.50;1.50;;;;;;;25.87;46.52;99050.72;5071618;28;20047;-70
2022/05/22 00:31:39;;;;;;;2.55;1.60;;;;;;;25.87;46.57;99048.72;5069775;28;20048;-72
2022/05/22 00:34:05;;;;;;;2.50;1.48;;;;;;;25.87;46.61;99045.13;5071126;28;20412;-73
2022/05/22 00:36:30;;;;;;;2.22;1.33;;;;;;;25.87;46.87;99042.31;5071260;28;20036;-73
2022/05/22 00:38:56;;;;;;;2.25;1.45;;;;;;;25.85;46.89;99034.31;5071468;28;20044;-73
2022/05/22 00:41:21;;;;;;;2.13;1.35;;;;;;;25.84;46.79;99031.94;5053415;28;20415;-73
2022/05/22 00:43:52;;;;;;;2.30;1.45;;;;;;;25.86;46.86;99035.91;5070212;28;20036;-73
2022/05/22 00:46:20;;;;;;;2.10;1.33;;;;;;;25.85;47.01;99033.50;5071246;28;20494;-73
2022/05/22 00:48:48;;;;;;;2.30;1.40;;;;;;;25.86;47.01;99037.91;5071283;28;20056;-73
2022/05/22 00:51:20;;;;;;;2.60;1.40;;;;;;;25.85;46.56;99037.09;5071370;28;20048;-73
2022/05/22 00:53:49;;;;;;;;;;;;;;;25.90;46.68;99033.84;5071474;28;20118;-73
2022/05/22 00:56:23;;;;;;;2.25;1.33;;;;;;;25.86;46.53;99035.09;5071010;28;19967;-73
2022/05/22 00:58:50;;;;;;;2.72;1.48;;;;;;;25.85;46.57;99036.31;5070958;28;20044;-73
2022/05/22 01:01:16;;;;;;;2.38;1.67;;;;;;;25.82;46.78;99028.75;5063901;28;20120;-73
2022/05/22 01:03:41;;;;;;;2.10;1.50;;;;;;;25.83;46.90;99030.34;5051152;28;20132;-70
2022/05/22 01:06:16;;;;;;;2.30;1.60;;;;;;;25.83;46.61;99024.75;5050824;28;20274;-73
2022/05/22 01:08:43;;;;;;;2.45;1.52;;;;;;;25.82;46.45;99012.75;5050987;28;20119;-73
2022/05/22 01:11:13;;;;;;;2.28;1.48;;;;;;;25.82;46.37;99017.56;5050808;28;20065;-73
2022/05/22 01:13:45;;;;;;;2.63;1.60;;;;;;;25.79;46.72;99017.19;5050614;28;20207;-73
2022/05/22 01:16:11;;;;;;;2.10;1.40;;;;;;;25.81;46.60;99010.38;5050848;28;20396;-73
2022/05/22 01:18:46;;;;;;;2.20;1.35;;;;;;;25.80;46.74;99009.56;5050877;28;20416;-73
2022/05/22 01:21:21;;;;;;;2.30;1.40;;;;;;;25.81;46.50;99013.94;5050779;28;20052;-73
2022/05/22 01:23:47;;;;;;;2.38;1.55;;;;;;;25.79;46.65;99005.97;5050891;28;20036;-73
2022/05/22 01:26:14;;;;;;;2.63;1.40;;;;;;;25.78;46.48;98998.75;5050293;28;20116;-73
2022/05/22 01:28:39;;;;;;;2.60;1.58;;;;;;;25.81;46.64;98993.56;5032951;28;20064;-73
2022/05/22 01:31:05;;;;;;;2.45;1.60;;;;;;;25.80;46.56;98984.34;5050550;28;20420;-73
2022/05/22 01:33:33;;;;;;;2.50;1.60;;;;;;;25.80;46.92;98995.56;5048184;28;20080;-73
2022/05/22 01:35:59;;;;;;;1.90;1.20;;;;;;;25.78;46.85;98992.34;5050266;28;20099;-73
2022/05/22 01:38:24;;;;;;;2.58;1.42;;;;;;;25.79;46.76;98996.78;5050551;28;20037;-73
2022/05/22 01:40:50;;;;;;;2.00;1.30;;;;;;;25.81;46.85;98996.34;5050617;28;20052;-73
2022/05/22 01:43:15;;;;;;;2.03;1.48;;;;;;;25.78;46.84;98993.16;5050593;28;20041;-73
2022/05/22 01:45:42;;;;;;;2.22;1.40;;;;;;;25.78;46.90;98995.97;5050138;28;20037;-73
2022/05/22 01:48:10;;;;;;;2.20;1.50;;;;;;;25.78;47.20;99001.56;5050444;28;20468;-73
2022/05/22 01:50:36;;;;;;;2.08;1.50;;;;;;;25.79;46.99;98994.78;5050400;28;20151;-73
2022/05/22 01:53:02;;;;;;;2.33;1.50;;;;;;;25.78;47.17;98995.16;5050064;28;20091;-73
2022/05/22 01:55:27;;;;;;;2.78;1.42;;;;;;;25.77;46.87;98993.56;5049251;28;20048;-73
2022/05/22 01:57:53;;;;;;;2.13;1.52;;;;;;;25.77;47.04;98997.16;5032292;28;20065;-73
2022/05/22 02:00:20;;;;;;;2.22;1.40;;;;;;;25.77;46.77;98990.78;5050284;28;20044;-73
2022/05/22 02:02:47;;;;;;;2.33;1.35;;;;;;;25.77;47.00;98987.97;5050310;28;20041;-73
2022/05/22 02:05:13;;;;;;;2.38;1.65;;;;;;;25.76;46.80;98987.19;5049866;28;20045;-73
2022/05/22 02:10:24;;;;;;;1.70;1.10;;;;;;;25.77;46.99;98977.56;5048533;28;20059;-73
2022/05/22 02:12:51;;;;;;;2.35;1.40;;;;;;;25.76;46.58;98975.19;5049927;28;20040;-73
2022/05/22 02:15:18;;;;;;;2.30;1.50;;;;;;;25.75;46.75;98974.41;5049513;28;20053;-73
2022/05/22 02:17:43;;;;;;;2.03;1.42;;;;;;;25.74;46.84;98981.22;5049902;28;20052;-73
2022/05/22 02:20:09;;;;;;;2.35;1.52;;;;;;;25.76;46.91;98986.38;5050052;28;20167;-73
2022/05/22 02:22:44;;;;;;;3.10;1.60;;;;;;;25.71;46.81;98979.19;5049721;28;20420;-70
2022/05/22 02:25:11;;;;;;;2.25;1.50;;;;;;;25.72;46.61;98974.44;5030475;28;20041;-70
2022/05/22 02:27:37;;;;;;;2.03;1.48;;;;;;;25.73;46.71;98971.22;5049725;28;20400;-70
2022/05/22 02:30:03;;;;;;;2.13;1.40;;;;;;;25.71;46.87;98968.00;5049645;28;21387;-70
2022/05/22 02:32:29;;;;;;;2.28;1.50;;;;;;;25.70;46.83;98968.41;5049541;28;20053;-70
2022/05/22 02:34:54;;;;;;;2.20;1.50;;;;;;;25.69;46.74;98959.22;5049337;28;20052;-70
2022/05/22 02:37:20;;;;;;;1.85;1.25;;;;;;;25.70;46.39;98955.22;5031759;28;20440;-70
2022/05/22 02:39:45;;;;;;;2.25;1.50;;;;;;;25.70;46.65;98960.81;5049732;28;20053;-70
2022/05/22 02:42:11;;;;;;;2.00;1.30;;;;;;;25.70;46.28;98963.63;5049640;28;20123;-70
2022/05/22 02:44:36;;;;;;;2.00;1.40;;;;;;;25.72;46.41;98963.25;5049582;28;20095;-70
2022/05/22 02:47:02;;;;;;;2.22;1.30;;;;;;;25.71;46.57;98962.41;5031380;28;20049;-70
2022/05/22 02:49:27;;;;;;;2.50;1.30;;;;;;;25.71;46.37;98954.00;5049517;28;20421;-73
2022/05/22 02:51:52;;;;;;;2.03;1.40;;;;;;;25.70;46.57;98960.03;5031289;28;20059;-73
2022/05/22 02:54:18;;;;;;;2.45;1.67;;;;;;;25.70;46.30;98954.41;5048901;28;20159;-73
2022/05/22 02:56:44;;;;;;;2.30;1.40;;;;;;;25.67;46.29;98953.25;5049328;28;20400;-73
2022/05/22 02:59:10;;;;;;;2.08;1.48;;;;;;;25.69;46.58;98956.44;5049249;28;20120;-70
2022/05/22 03:01:36;;;;;;;2.00;1.40;;;;;;;25.69;46.35;98950.03;5031606;28;20052;-70
2022/05/22 03:04:01;;;;;;;1.88;1.27;;;;;;;25.68;46.69;98949.25;5049372;28;20041;-70
2022/05/22 03:06:39;;;;;;;2.03;1.30;;;;;;;25.67;46.58;98953.25;5050162;28;20435;-70
2022/05/22 03:09:13;;;;;;;2.10;1.40;;;;;;;25.67;46.45;98950.47;5052928;28;20059;-70
2022/05/22 03:11:39;;;;;;;2.20;1.40;;;;;;;25.69;46.51;98948.03;5052847;28;20068;-70
2022/05/22 03:14:05;;;;;;;2.10;1.33;;;;;;;25.67;46.29;98944.84;5052523;28;20045;-70
2022/05/22 03:16:31;;;;;;;2.20;1.50;;;;;;;25.68;46.54;98946.44;5052574;28;20071;-70
2022/05/22 03:18:56;;;;;;;2.35;1.50;;;;;;;25.65;46.25;98940.91;5034855;28;20493;-70
2022/05/22 03:21:22;;;;;;;2.33;1.40;;;;;;;25.66;46.37;98939.69;5052682;28;20535;-70
2022/05/22 03:23:47;;;;;;;2.30;1.40;;;;;;;25.65;45.95;98946.50;5052826;28;20045;-70
2022/05/22 03:26:13;;;;;;;1.90;1.20;;;;;;;25.65;46.11;98947.28;5052392;28;20103;-70
2022/05/22 03:28:39;;;;;;;2.28;1.48;;;;;;;25.64;46.09;98942.88;5052516;28;20048;-70
2022/05/22 03:31:04;;;;;;;2.13;1.45;;;;;;;25.63;46.01;98941.28;5052701;28;20063;-70
2022/05/22 03:33:30;;;;;;;2.30;1.52;;;;;;;25.59;45.91;98934.97;5040810;28;20156;-70
2022/05/22 03:35:55;;;;;;;2.30;1.35;;;;;;;25.63;45.88;98932.88;5060572;28;20041;-70
2022/05/22 03:38:21;;;;;;;2.13;1.55;;;;;;;25.62;46.19;98928.50;5043157;28;20158;-70
2022/05/22 03:40:47;;;;;;;2.40;1.48;;;;;;;25.63;46.10;98935.69;5055677;28;20053;-70
2022/05/22 03:43:17;;;;;;;2.33;1.50;;;;;;;25.60;46.37;98932.94;5052474;28;20045;-70
2022/05/22 03:45:44;;;;;;;2.00;1.40;;;;;;;25.62;46.25;98936.91;5052020;28;20053;-70
2022/05/22 03:48:10;;;;;;;2.53;1.58;;;;;;;25.60;46.11;98933.75;5052231;28;20055;-70
2022/05/22 03:50:36;;;;;;;2.10;1.40;;;;;;;25.60;46.29;98935.75;5052207;28;20447;-70
2022/05/22 03:53:02;;;;;;;1.92;1.25;;;;;;;25.60;45.99;98936.53;5051965;28;20128;-70
2022/05/22 03:55:27;;;;;;;1.63;1.20;;;;;;;25.59;46.26;98934.97;5051554;28;20043;-70
2022/05/22 03:57:53;;;;;;;3.03;1.50;;;;;;;25.60;46.29;98938.56;5052018;28;20155;-70
2022/05/22 04:00:22;;;;;;;2.50;1.48;;;;;;;25.59;46.01;98929.34;5034193;28;20048;-70
2022/05/22 04:02:47;;;;;;;2.45;1.58;;;;;;;25.58;45.99;98930.56;5052018;28;20041;-70
2022/05/22 04:05:13;;;;;;;1.58;1.20;;;;;;;25.57;46.19;98934.56;5051645;28;20037;-70
2022/05/22 04:07:41;;;;;;;2.08;1.50;;;;;;;25.60;46.03;98939.34;5051667;28;20053;-70
2022/05/22 04:10:08;;;;;;;1.80;1.20;;;;;;;25.57;46.28;98942.16;5049941;28;20041;-70
2022/05/22 04:12:35;;;;;;;2.53;1.38;;;;;;;25.57;45.93;98942.97;5051681;28;20055;-70
2022/05/22 04:15:01;;;;;;;2.13;1.50;;;;;;;25.53;46.25;98950.63;5051405;28;20052;-70
2022/05/22 04:17:27;;;;;;;2.20;1.50;;;;;;;25.52;46.15;98951.84;5033647;28;20045;-70
2022/05/22 04:19:52;;;;;;;2.30;1.42;;;;;;;25.55;46.24;98953.00;5051761;28;20049;-70
2022/05/22 04:22:17;;;;;;;2.42;1.30;;;;;;;25.54;45.97;98946.63;5051510;28;20049;-70
2022/05/22 04:27:27;;;;;;;2.05;1.30;;;;;;;25.56;45.92;98954.59;5051542;28;20471;-70
2022/05/22 04:29:53;;;;;;;2.58;1.40;;;;;;;25.54;45.98;98955.00;5051362;28;20036;-70
2022/05/22 04:32:18;;;;;;;1.80;1.27;;;;;;;25.53;46.40;98956.22;5051277;28;20106;-70
2022/05/22 04:34:43;;;;;;;1.85;1.20;;;;;;;25.54;46.14;98955.00;5033051;28;20103;-70
2022/05/22 04:37:09;;;;;;;1.88;1.20;;;;;;;25.54;46.12;98960.63;5051558;28;20045;-70
2022/05/22 04:39:35;;;;;;;2.08;1.40;;;;;;;25.53;46.28;98954.22;5051436;28;20416;-70
2022/05/22 04:42:00;;;;;;;2.08;1.30;;;;;;;25.53;46.23;98953.44;5051564;28;20085;-70
2022/05/22 04:44:26;;;;;;;1.90;1.33;;;;;;;25.50;46.56;98957.06;5051505;28;20074;-70
2022/05/22 04:46:51;;;;;;;2.03;1.42;;;;;;;25.53;46.64;98959.03;5033081;28;20045;-69
2022/05/22 04:49:17;;;;;;;2.00;1.20;;;;;;;25.52;46.48;98955.44;5051324;28;20072;-70
2022/05/22 04:51:42;;;;;;;2.10;1.25;;;;;;;25.54;46.43;98960.63;5051246;28;20056;-70
2022/05/22 04:54:07;;;;;;;2.55;1.58;;;;;;;25.53;46.63;98962.63;5033037;28;20047;-70
2022/05/22 04:56:33;;;;;;;2.00;1.30;;;;;;;25.53;46.59;98957.03;5051018;28;20099;-70
2022/05/22 04:58:59;;;;;;;2.17;1.20;;;;;;;25.53;47.03;98968.22;5051305;28;20068;-70
2022/05/22 05:01:24;;;;;;;2.10;1.35;;;;;;;25.53;46.75;98967.44;5051119;28;20065;-70
2022/05/22 05:03:49;;;;;;;2.28;1.52;;;;;;;25.50;47.16;98954.25;5051193;28;20041;-70
2022/05/22 05:06:15;;;;;;;2.17;1.50;;;;;;;25.54;46.88;98960.63;5050764;28;20382;-70
2022/05/22 05:08:40;;;;;;;2.13;1.50;;;;;;;25.52;47.29;98963.84;5051249;28;20049;-70
2022/05/22 05:11:11;;;;;;;2.15;1.40;;;;;;;25.54;47.08;98963.41;5033102;28;20057;-70
2022/05/22 05:13:37;;;;;;;1.92;1.35;;;;;;;25.53;47.43;98961.84;5050963;28;20072;-70
2022/05/22 05:16:04;;;;;;;2.10;1.50;;;;;;;25.51;47.46;98969.88;5050557;28;20072;-69
2022/05/22 05:18:30;;;;;;;2.20;1.50;;;;;;;25.53;47.71;98973.81;5048877;28;20111;-70
2022/05/22 05:21:00;;;;;;;2.63;1.45;;;;;;;25.52;47.72;98971.44;5050820;28;20049;-70
2022/05/22 05:23:25;;;;;;;2.80;1.70;;;;;;;25.55;47.53;98983.81;5050813;28;20136;-70
2022/05/22 05:25:51;;;;;;;2.10;1.50;;;;;;;25.54;47.93;98977.41;5050515;28;20132;-70
2022/05/22 05:28:17;;;;;;;2.00;1.42;;;;;;;25.54;47.86;98971.81;5050461;28;20394;-70
2022/05/22 05:30:42;;;;;;;2.00;1.45;;;;;;;25.55;47.71;98976.19;5032330;28;20056;-70
2022/05/22 05:33:08;;;;;;;2.13;1.50;;;;;;;25.54;48.24;98971.81;5050394;28;20048;-70
2022/05/22 05:35:33;;;;;;;2.45;1.63;;;;;;;25.54;48.26;98974.63;5050166;28;20451;-70
2022/05/22 05:37:59;;;;;;;2.10;1.55;;;;;;;25.54;48.08;98977.41;5050529;28;20037;-70
2022/05/22 05:40:25;;;;;;;2.78;1.75;;;;;;;25.55;48.13;98972.59;5050596;28;20049;-70
2022/05/22 05:42:50;;;;;;;2.35;1.70;;;;;;;25.53;48.58;98967.44;5050558;28;20037;-70
2022/05/22 05:45:17;;;;;;;2.42;1.52;;;;;;;25.52;48.21;98977.84;5050312;28;20048;-70
2022/05/22 05:47:48;;;;;;;2.63;1.73;;;;;;;25.53;48.34;98967.44;5050482;28;20060;-70
2022/05/22 05:50:16;;;;;;;2.60;1.50;;;;;;;25.52;48.64;98977.06;5050350;28;20134;-70
2022/05/22 05:52:42;;;;;;;2.65;1.88;;;;;;;25.55;48.76;98970.59;5050183;28;20045;-70
2022/05/22 05:55:08;;;;;;;2.40;1.80;;;;;;;25.56;48.51;98969.38;5049833;28;20045;-70
2022/05/22 05:57:33;;;;;;;2.10;1.60;;;;;;;25.56;48.73;98975.00;5048081;28;20036;-70
2022/05/22 05:59:59;;;;;;;2.53;1.75;;;;;;;25.57;48.66;98976.56;5050050;28;20049;-70
2022/05/22 06:02:24;;;;;;;2.55;1.80;;;;;;;25.57;48.55;98970.97;5050062;28;20053;-69
2022/05/22 06:04:50;;;;;;;3.03;1.88;;;;;;;25.58;49.02;98972.59;5050119;28;20033;-70
2022/05/22 06:07:16;;;;;;;2.90;1.60;;;;;;;25.60;48.86;98972.94;5049806;28;20053;-70
2022/05/22 06:09:41;;;;;;;2.20;1.60;;;;;;;25.60;48.58;98978.56;5050103;28;20111;-70
2022/05/22 06:12:07;;;;;;;2.80;1.77;;;;;;;25.60;48.52;98978.56;5049960;28;20074;-70
2022/05/22 06:14:33;;;;;;;2.60;1.65;;;;;;;25.61;48.63;98979.34;5049524;28;20048;-70
2022/05/22 06:16:58;;;;;;;2.47;1.60;;;;;;;25.61;48.70;98980.13;5049566;28;20052;-70
2022/05/22 06:22:08;;;;;;;2.42;1.77;;;;;;;25.61;48.65;98970.94;5049788;28;20059;-73
2022/05/22 06:24:37;;;;;;;2.47;1.73;;;;;;;25.59;48.40;98971.38;5049835;28;20508;-70
2022/05/22 06:27:03;;;;;;;2.30;1.50;;;;;;;25.60;48.82;98970.16;5049423;28;20075;-70
2022/05/22 06:29:28;;;;;;;2.20;1.67;;;;;;;25.61;48.47;98974.53;5049545;28;20413;-71
2022/05/22 06:31:54;;;;;;;2.30;1.60;;;;;;;25.61;48.65;98973.75;5049753;28;20044;-70
2022/05/22 06:34:22;;;;;;;2.05;1.48;;;;;;;25.62;48.41;98970.53;5031360;28;20052;-70
2022/05/22 06:36:49;;;;;;;2.50;1.60;;;;;;;25.62;48.56;98976.13;5031382;28;20048;-70
2022/05/22 06:41:58;;;;;;;2.47;1.73;;;;;;;25.63;48.45;98969.31;5048383;28;20124;-70
2022/05/22 06:44:24;;;;;;;2.55;1.50;;;;;;;25.63;48.75;98972.09;5031784;28;20479;-70
2022/05/22 06:46:49;;;;;;;2.53;1.55;;;;;;;25.60;48.60;98958.94;5049074;28;20044;-70
2022/05/22 06:49:14;;;;;;;2.15;1.50;;;;;;;25.64;48.73;98968.09;5049406;28;20158;-70
2022/05/22 06:51:40;;;;;;;3.17;1.65;;;;;;;25.61;48.85;98952.13;5049154;28;20103;-70
2022/05/22 06:54:05;;;;;;;2.42;1.67;;;;;;;25.64;48.61;98958.88;5049314;28;20056;-70
2022/05/22 06:56:31;;;;;;;2.33;1.70;;;;;;;25.63;48.74;98948.91;5030966;28;20033;-70
2022/05/22 06:58:56;;;;;;;2.00;1.58;;;;;;;25.65;48.75;98949.31;5049318;28;20044;-69
2022/05/22 07:01:22;;;;;;;2.45;1.58;;;;;;;25.62;48.61;98944.53;5049403;28;20045;-70
2022/05/22 07:03:47;;;;;;;2.40;1.50;;;;;;;25.65;48.91;98950.09;5031241;28;20091;-70
2022/05/22 07:06:13;;;;;;;2.05;1.40;;;;;;;25.64;48.83;98940.06;5048914;28;20048;-70
2022/05/22 07:08:38;;;;;;;2.55;1.80;;;;;;;25.66;48.76;98942.47;5049084;28;20428;-69
2022/05/22 07:13:47;;;;;;;2.40;1.60;;;;;;;25.67;48.82;98944.84;5047787;28;20520;-70
2022/05/22 07:16:13;;;;;;;2.47;1.40;;;;;;;25.67;48.74;98939.25;5048772;28;20040;-73
2022/05/22 07:18:38;;;;;;;2.17;1.60;;;;;;;25.67;48.67;98938.47;5048988;28;20053;-73
2022/05/22 07:21:03;;;;;;;2.60;1.77;;;;;;;25.67;48.54;98944.06;5049042;28;20056;-73
2022/05/22 07:23:29;;;;;;;2.30;1.60;;;;;;;25.70;48.41;98946.00;5062497;28;20133;-73
2022/05/22 07:25:55;;;;;;;2.22;1.52;;;;;;;25.71;48.33;98942.78;5068623;28;20044;-73
2022/05/22 07:28:21;;;;;;;2.25;1.50;;;;;;;25.72;48.21;98943.63;5068908;28;20056;-70
2022/05/22 07:30:46;;;;;;;2.22;1.58;;;;;;;25.71;48.33;98936.38;5068737;28;20033;-70
2022/05/22 07:33:12;;;;;;;2.03;1.40;;;;;;;25.71;48.32;98930.78;5068963;28;20052;-70
2022/05/22 07:35:37;;;;;;;2.00;1.38;;;;;;;25.71;48.37;98928.78;5068541;28;20059;-70
2022/05/22 07:38:03;;;;;;;2.13;1.48;;;;;;;25.71;48.63;98931.59;5050878;28;20558;-70
2022/05/22 07:40:30;;;;;;;2.03;1.40;;;;;;;25.73;48.41;98934.81;5068697;28;20041;-70
2022/05/22 07:42:56;;;;;;;2.13;1.40;;;;;;;25.74;48.46;98927.19;5050636;28;20072;-69
2022/05/22 07:45:22;;;;;;;2.40;1.55;;;;;;;25.74;48.72;98924.41;5068638;28;20145;-70
2022/05/22 07:47:47;;;;;;;2.28;1.52;;;;;;;25.76;48.67;98924.75;5068559;28;20052;-70
2022/05/22 07:50:20;;;;;;;2.47;1.45;;;;;;;25.75;48.50;98923.19;5050222;28;20037;-70
2022/05/22 07:52:47;;;;;;;2.58;1.70;;;;;;;25.76;48.66;98927.56;5050290;28;20042;-70
2022/05/22 07:55:14;;;;;;;1.92;1.40;;;;;;;25.73;48.97;98908.81;5051823;28;20041;-70
2022/05/22 07:57:43;;;;;;;1.92;1.50;;;;;;;25.74;48.96;98911.19;5052061;28;20144;-69
2022/05/22 08:00:11;;;;;;;2.40;1.75;;;;;;;25.77;48.96;98915.13;5052145;28;20041;-70
2022/05/22 08:02:36;;;;;;;1.95;1.30;;;;;;;25.76;48.90;98907.94;5047480;28;20049;-70
2022/05/22 08:05:03;;;;;;;2.22;1.48;;;;;;;25.78;49.24;98906.31;5063331;28;20044;-70
2022/05/22 08:07:28;;;;;;;2.35;1.50;;;;;;;25.75;49.25;98900.75;5035320;28;20467;-70
2022/05/22 08:09:53;;;;;;;2.22;1.60;;;;;;;25.77;49.10;98901.91;5055697;28;20548;-70
2022/05/22 08:12:19;;;;;;;2.13;1.50;;;;;;;25.78;49.59;98894.31;5052658;28;20183;-70
2022/05/22 08:14:44;;;;;;;2.30;1.60;;;;;;;25.81;49.21;98889.88;5055117;28;20428;-70
2022/05/22 08:17:10;;;;;;;3.03;1.90;;;;;;;25.79;49.52;98879.91;5048457;28;20521;-70
2022/05/22 08:19:36;;;;;;;2.30;1.50;;;;;;;25.82;49.82;98883.84;5052205;28;20174;-70
2022/05/22 08:22:02;;;;;;;2.45;1.83;;;;;;;25.82;49.64;98878.25;5071680;28;20131;-70
2022/05/22 08:24:27;;;;;;;2.50;1.50;;;;;;;25.83;49.59;98867.84;5035833;28;20059;-70
2022/05/22 08:26:52;;;;;;;2.50;1.60;;;;;;;25.84;49.34;98873.00;5061166;28;20045;-70
2022/05/22 08:29:18;;;;;;;2.45;1.60;;;;;;;25.84;48.97;98875.03;5062686;28;20049;-70
2022/05/22 08:31:44;;;;;;;2.22;1.50;;;;;;;25.86;49.25;98861.38;5067427;28;20169;-70
2022/05/22 08:34:09;;;;;;;2.20;1.50;;;;;;;25.87;48.97;98863.00;5036530;28;20052;-70
2022/05/22 08:36:35;;;;;;;2.45;1.63;;;;;;;25.84;48.79;98858.22;5040799;28;20405;-70
2022/05/22 08:39:00;;;;;;;2.05;1.45;;;;;;;25.87;48.58;98857.38;5048466;28;20041;-70
2022/05/22 08:41:32;;;;;;;2.17;1.60;;;;;;;25.87;48.89;98860.19;5035689;28;20056;-70
2022/05/22 08:44:14;;;;;;;2.40;1.40;;;;;;;25.89;48.40;98858.53;5036795;28;20049;-70
2022/05/22 08:46:54;;;;;;;2.42;1.55;;;;;;;25.90;48.37;98856.53;5060814;28;20041;-70
2022/05/22 08:49:20;;;;;;;2.08;1.50;;;;;;;25.92;48.46;98851.28;5041363;28;20052;-71
2022/05/22 08:51:49;;;;;;;1.90;1.33;;;;;;;25.91;48.40;98844.88;5056866;28;20060;-70
2022/05/22 08:54:32;;;;;;;3.35;1.30;;;;;;;25.92;48.50;98849.28;5043801;28;21532;-70
2022/05/22 08:59:47;;;;;;;2.20;1.42;;;;;;;25.91;48.34;98841.28;5047461;28;20064;-70
2022/05/22 09:02:16;;;;;;;2.22;1.50;;;;;;;25.91;48.40;98838.50;5034945;28;20437;-70
2022/05/22 09:05:09;;;;;;;2.72;1.70;;;;;;;25.90;48.53;98834.91;5061221;28;20051;-70
2022/05/22 09:07:41;;;;;;;;;;;;;;;25.94;48.34;98824.44;5045548;28;20132;-70
2022/05/22 09:10:10;;;;;;;2.55;1.73;;;;;;;25.93;48.01;98827.66;5027463;28;19917;-70
2022/05/22 09:13:05;;;;;;;2.15;1.45;;;;;;;25.91;48.24;98825.28;5048887;28;20566;-70
2022/05/22 09:15:57;;;;;;;1.90;1.40;;;;;;;25.90;48.33;98822.91;5059498;28;20569;-69
2022/05/22 09:18:33;;;;;;;2.50;1.70;;;;;;;25.90;48.48;98820.09;5070224;28;20501;-70
2022/05/22 09:21:04;;;;;;;2.10;1.50;;;;;;;25.89;48.44;98815.72;5070288;28;20037;-70
2022/05/22 09:23:46;;;;;;;3.25;1.45;;;;;;;25.92;48.69;98821.25;5066360;28;20865;-70
2022/05/22 09:26:21;;;;;;;2.33;1.67;;;;;;;25.93;48.43;98810.84;5056862;28;20049;-70
2022/05/22 09:28:46;;;;;;;2.28;1.50;;;;;;;25.94;48.47;98810.44;5062042;28;20032;-69
2022/05/22 09:31:41;;;;;;;2.90;1.70;;;;;;;25.95;48.74;98800.81;5060568;28;20209;-70
2022/05/22 09:34:30;;;;;;;2.83;1.70;;;;;;;25.94;48.54;98792.81;5056106;28;20064;-70
2022/05/22 09:37:22;;;;;;;2.10;1.55;;;;;;;25.97;48.71;98794.78;5025873;28;20065;-71
2022/05/22 09:39:57;;;;;;;2.53;1.60;;;;;;;25.98;48.76;98787.94;5062697;28;20520;-70
2022/05/22 09:42:37;;;;;;;2.42;1.40;;;;;;;25.97;48.34;98789.16;5048111;28;20049;-70
2022/05/22 09:45:16;;;;;;;2.95;1.60;;;;;;;25.97;48.55;98783.56;5047859;28;20129;-70
2022/05/22 09:47:56;;;;;;;2.03;1.50;;;;;;;26.00;48.26;98782.69;5049579;28;20414;-70
2022/05/22 09:50:31;;;;;;;2.10;1.50;;;;;;;25.97;48.55;98778.75;5053903;28;20052;-70
2022/05/22 09:53:07;;;;;;;2.35;1.80;;;;;;;25.99;48.02;98772.72;5047068;28;20048;-70
2022/05/22 09:55:46;;;;;;;2.30;1.58;;;;;;;25.98;48.23;98763.50;5064067;28;20044;-70
2022/05/22 09:58:23;;;;;;;2.35;1.70;;;;;;;25.96;47.91;98754.75;5057840;28;20128;-70
2022/05/22 10:01:00;;;;;;;2.40;1.40;;;;;;;25.96;47.98;98754.75;5058681;28;20041;-70
2022/05/22 10:03:42;;;;;;;2.28;1.60;;;;;;;25.95;47.97;98752.38;5068236;28;20040;-70
2022/05/22 10:06:20;;;;;;;;;;;;;;;25.98;47.78;98743.09;5067912;28;20056;-70
2022/05/22 10:09:06;;;;;;;2.10;1.60;;;;;;;26.00;48.00;98743.47;5067845;28;20054;-70
2022/05/22 10:11:40;;;;;;;2.45;1.70;;;;;;;26.00;47.89;98743.47;5060007;28;20043;-70
2022/05/22 10:14:41;;;;;;;2.10;1.35;;;;;;;25.99;47.85;98737.06;5069217;28;20123;-70
2022/05/22 10:17:09;;;;;;;2.75;1.75;;;;;;;26.00;47.88;98727.47;4986822;28;20457;-70
2022/05/22 10:19:59;;;;;;;1.98;1.45;;;;;;;26.01;47.88;98717.03;4987571;28;20042;-70
2022/05/22 10:22:36;;;;;;;2.30;1.48;;;;;;;26.03;48.31;98726.59;4985784;28;20125;-72
2022/05/22 10:25:39;;;;;;;2.58;1.70;;;;;;;26.05;48.43;98726.97;4970809;28;20451;-73
2022/05/22 10:28:10;;;;;;;2.88;1.52;;;;;;;26.06;48.17;98719.34;4986381;28;20490;-73
2022/05/22 10:30:45;;;;;;;2.30;1.55;;;;;;;26.06;48.11;98716.53;4987565;28;20509;-73
2022/05/22 10:33:28;;;;;;;2.28;1.67;;;;;;;26.06;48.07;98708.91;4968082;28;20495;-73
2022/05/22 10:36:13;;;;;;;2.33;1.63;;;;;;;26.06;48.19;98703.31;4975706;28;20114;-73
2022/05/22 10:38:44;;;;;;;2.85;1.65;;;;;;;26.08;48.34;98702.91;4987182;28;20049;-73
2022/05/22 10:44:13;;;;;;;2.45;1.67;;;;;;;26.08;48.24;98688.91;4990311;28;20089;-73
2022/05/22 10:47:05;;;;;;;3.63;1.83;;;;;;;26.10;47.92;98685.66;5006859;28;20050;-73
2022/05/22 10:49:45;;;;;;;2.45;1.63;;;;;;;26.08;47.82;98683.28;5004186;28;20136;-73
2022/05/22 10:52:14;;;;;;;2.65;1.60;;;;;;;26.09;48.33;98679.25;5043849;28;20057;-73
2022/05/22 10:54:51;;;;;;;2.40;1.60;;;;;;;26.08;47.96;98683.28;5061680;28;20068;-73
2022/05/22 10:57:22;;;;;;;2.50;1.65;;;;;;;26.11;48.05;98676.81;5068597;28;20044;-73
2022/05/22 10:59:49;;;;;;;3.10;1.52;;;;;;;26.11;48.41;98673.22;5069171;28;20044;-73
2022/05/22 11:02:29;;;;;;;2.38;1.63;;;;;;;26.11;48.30;98671.22;5066523;28;20048;-73
2022/05/22 11:04:57;;;;;;;2.70;1.55;;;;;;;26.14;48.03;98664.72;5064817;28;20055;-73
2022/05/22 11:07:30;;;;;;;2.65;1.63;;;;;;;26.14;48.19;98661.94;5058441;28;20175;-73
2022/05/22 11:10:09;;;;;;;2.22;1.50;;;;;;;26.15;48.21;98663.53;5066789;28;20052;-70
2022/05/22 11:12:34;;;;;;;2.35;1.60;;;;;;;26.17;48.27;98655.47;5066568;28;20048;-70
2022/05/22 11:15:11;;;;;;;2.60;1.70;;;;;;;26.16;48.44;98659.50;5068630;28;20377;-70
2022/05/22 11:17:37;;;;;;;4.30;2.17;;;;;;;26.14;48.24;98647.13;5038173;28;20048;-70
2022/05/22 11:20:16;;;;;;;2.92;1.85;;;;;;;26.16;48.37;98650.31;5033726;28;20045;-70
2022/05/22 11:22:58;;;;;;;3.10;1.73;;;;;;;26.17;48.29;98646.28;5068121;28;20048;-70
2022/05/22 11:25:43;;;;;;;2.22;1.50;;;;;;;26.18;48.73;98643.03;5056164;28;20044;-70
2022/05/22 11:28:31;;;;;;;2.42;1.70;;;;;;;26.18;48.34;98637.44;5065448;28;20049;-70
2022/05/22 11:31:38;;;;;;;2.95;1.52;;;;;;;26.21;48.38;98630.16;5039107;28;20049;-70
2022/05/22 11:34:31;;;;;;;2.70;1.67;;;;;;;26.21;48.63;98618.97;4988386;28;20050;-73
2022/05/22 11:37:09;;;;;;;2.70;1.88;;;;;;;26.21;48.42;98611.34;4977460;28;20054;-70
2022/05/22 11:39:52;;;;;;;2.30;1.45;;;;;;;26.20;48.93;98609.75;4974213;28;20046;-70
2022/05/22 11:42:32;;;;;;;2.50;1.75;;;;;;;26.21;48.63;98602.94;4983140;28;20054;-70
2022/05/22 11:45:01;;;;;;;2.20;1.50;;;;;;;26.22;48.76;98598.09;4982456;28;20247;-73
2022/05/22 11:47:57;;;;;;;2.70;1.55;;;;;;;26.22;48.81;98584.91;4983179;28;20129;-73
2022/05/22 11:50:47;;;;;;;2.88;1.70;;;;;;;26.22;48.79;98579.31;4966786;28;20042;-73
2022/05/22 11:53:50;;;;;;;2.45;1.63;;;;;;;26.23;48.92;98574.47;4984976;28;20104;-73
2022/05/22 11:56:31;;;;;;;3.60;1.67;;;;;;;26.25;49.02;98569.22;4986150;28;20050;-73
2022/05/22 11:59:05;;;;;;;2.58;1.73;;;;;;;26.25;48.92;98564.41;4970261;28;20050;-73
2022/05/22 12:01:38;;;;;;;2.65;1.70;;;;;;;26.23;49.14;98558.44;4984854;28;20129;-73
2022/05/22 12:04:16;;;;;;;2.55;1.45;;;;;;;26.26;48.86;98563.19;4982488;28;20034;-73
2022/05/22 12:06:54;;;;;;;2.15;1.48;;;;;;;26.24;48.83;98543.22;4983377;28;20050;-73